createdAt,value
2019-03-21T00:00:05.443Z,2.80
2019-03-21T00:02:34.991Z,2.80
2019-03-21T00:05:05.316Z,2.80
2019-03-21T00:07:35.762Z,2.70
2019-03-21T00:10:18.325Z,2.70
2019-03-21T00:12:50.929Z,2.80
2019-03-21T00:15:28.392Z,2.80
2019-03-21T00:18:07.373Z,2.80
2019-03-21T00:20:36.929Z,2.70
2019-03-21T00:23:17.451Z,2.70
2019-03-21T00:25:47.010Z,2.70
2019-03-21T00:28:16.405Z,2.70
2019-03-21T00:30:48.899Z,2.70
2019-03-21T00:33:18.474Z,2.70
2019-03-21T00:35:48.030Z,2.60
2019-03-21T00:38:17.586Z,2.60
2019-03-21T00:40:47.247Z,2.60
2019-03-21T00:43:17.681Z,2.50
2019-03-21T00:45:49.234Z,2.60
2019-03-21T00:48:20.913Z,2.60
2019-03-21T00:50:53.629Z,2.60
2019-03-21T00:53:23.136Z,2.60
2019-03-21T00:55:52.769Z,2.50
2019-03-21T00:58:22.249Z,2.50
2019-03-21T01:00:53.886Z,2.50
2019-03-21T01:03:23.513Z,2.50
2019-03-21T01:05:53.141Z,2.40
2019-03-21T01:08:22.629Z,2.40
2019-03-21T01:10:52.471Z,2.40
2019-03-21T01:13:22.294Z,2.40
2019-03-21T01:15:51.853Z,2.40
2019-03-21T01:18:21.288Z,2.30
2019-03-21T01:20:51.802Z,2.30
2019-03-21T01:23:30.890Z,2.30
2019-03-21T01:26:01.937Z,2.30
2019-03-21T01:28:44.614Z,2.30
2019-03-21T01:31:14.121Z,2.30
2019-03-21T01:33:43.598Z,2.30
2019-03-21T01:36:14.108Z,2.30
2019-03-21T01:38:45.598Z,2.40
2019-03-21T01:41:15.091Z,2.40
2019-03-21T01:43:44.509Z,2.40
2019-03-21T01:46:14.654Z,2.40
2019-03-21T01:48:44.141Z,2.40
2019-03-21T01:51:13.694Z,2.30
2019-03-21T01:53:44.154Z,2.30
2019-03-21T01:56:19.475Z,2.40
2019-03-21T01:58:51.206Z,2.40
2019-03-21T02:01:20.639Z,2.40
2019-03-21T02:03:50.142Z,2.30
2019-03-21T02:06:20.636Z,2.20
2019-03-21T02:08:50.186Z,2.20
2019-03-21T02:11:19.766Z,2.20
2019-03-21T02:14:06.396Z,2.20
2019-03-21T02:16:36.844Z,2.20
2019-03-21T02:19:13.315Z,2.20
2019-03-21T02:21:42.949Z,2.10
2019-03-21T02:24:13.533Z,2.10
2019-03-21T02:26:43.019Z,2.10
2019-03-21T02:29:12.522Z,2.20
2019-03-21T02:31:44.035Z,2.10
2019-03-21T02:34:13.600Z,2.10
2019-03-21T02:36:44.012Z,2.10
2019-03-21T02:39:13.574Z,2.10
2019-03-21T02:41:48.285Z,2.10
2019-03-21T02:44:19.798Z,2.10
2019-03-21T02:46:51.384Z,2.10
2019-03-21T02:49:20.882Z,2.10
2019-03-21T02:51:53.722Z,2.10
2019-03-21T02:54:23.233Z,2.10
2019-03-21T02:56:53.194Z,2.10
2019-03-21T02:59:22.691Z,2.10
2019-03-21T03:01:55.807Z,2.10
2019-03-21T03:04:25.325Z,2.20
2019-03-21T03:07:01.679Z,2.20
2019-03-21T03:09:31.320Z,2.10
2019-03-21T03:12:01.634Z,2.00
2019-03-21T03:14:33.044Z,2.00
2019-03-21T03:17:09.671Z,2.00
2019-03-21T03:19:39.166Z,2.00
2019-03-21T03:22:08.072Z,2.00
2019-03-21T03:24:38.418Z,1.90
2019-03-21T03:27:07.897Z,1.90
2019-03-21T03:29:37.483Z,2.00
2019-03-21T03:32:09.544Z,2.00
2019-03-21T03:34:39.279Z,2.00
2019-03-21T03:37:11.986Z,2.00
2019-03-21T03:39:41.414Z,1.90
2019-03-21T03:42:11.462Z,1.80
2019-03-21T03:44:41.931Z,1.90
2019-03-21T03:47:19.118Z,1.80
2019-03-21T03:49:49.546Z,1.80
2019-03-21T03:52:20.982Z,1.90
2019-03-21T03:54:51.568Z,2.00
2019-03-21T03:57:21.034Z,2.00
2019-03-21T03:59:55.686Z,2.00
2019-03-21T04:02:25.241Z,2.00
2019-03-21T04:04:55.835Z,2.00
2019-03-21T04:07:26.059Z,2.10
2019-03-21T04:10:02.922Z,2.10
2019-03-21T04:12:32.524Z,2.00
2019-03-21T04:15:04.253Z,2.10
2019-03-21T04:17:39.894Z,2.10
2019-03-21T04:20:12.607Z,2.20
2019-03-21T04:22:42.370Z,2.10
2019-03-21T04:25:14.934Z,2.10
2019-03-21T04:27:45.473Z,2.10
2019-03-21T04:30:15.953Z,2.10
2019-03-21T04:32:45.435Z,2.20
2019-03-21T04:35:19.046Z,2.10
2019-03-21T04:37:48.606Z,2.10
2019-03-21T04:40:24.073Z,2.00
2019-03-21T04:42:56.558Z,2.20
2019-03-21T04:45:26.129Z,2.10
2019-03-21T04:47:55.956Z,2.20
2019-03-21T04:50:26.173Z,2.10
2019-03-21T04:52:55.878Z,2.10
2019-03-21T04:55:25.461Z,2.10
2019-03-21T04:57:54.845Z,2.10
2019-03-21T05:00:26.813Z,2.20
2019-03-21T05:02:58.513Z,2.20
2019-03-21T05:05:28.066Z,2.10
2019-03-21T05:07:57.541Z,2.10
2019-03-21T05:10:26.996Z,2.10
2019-03-21T05:12:56.441Z,2.30
2019-03-21T05:15:28.455Z,2.30
2019-03-21T05:18:01.090Z,2.30
2019-03-21T05:20:30.869Z,2.30
2019-03-21T05:23:00.366Z,2.20
2019-03-21T05:25:30.073Z,2.20
2019-03-21T05:28:00.285Z,2.30
2019-03-21T05:30:36.361Z,2.20
2019-03-21T05:33:05.993Z,2.10
2019-03-21T05:35:35.460Z,2.10
2019-03-21T05:38:04.893Z,2.10
2019-03-21T05:40:34.286Z,2.00
2019-03-21T05:43:07.140Z,2.00
2019-03-21T05:45:44.093Z,2.10
2019-03-21T05:48:13.769Z,2.30
2019-03-21T05:50:43.151Z,2.30
2019-03-21T05:53:12.622Z,2.30
2019-03-21T05:55:42.184Z,2.20
2019-03-21T05:58:11.713Z,2.40
2019-03-21T06:00:42.564Z,2.50
2019-03-21T06:03:21.562Z,2.60
2019-03-21T06:05:54.908Z,2.60
2019-03-21T06:08:29.740Z,2.70
2019-03-21T06:10:59.194Z,2.60
2019-03-21T06:13:28.648Z,2.70
2019-03-21T06:16:06.448Z,2.70
2019-03-21T06:19:00.765Z,2.80
2019-03-21T06:21:44.405Z,2.90
2019-03-21T06:24:54.509Z,2.90
2019-03-21T06:27:31.790Z,2.80
2019-03-21T06:30:01.738Z,3.00
2019-03-21T06:32:35.666Z,2.90
2019-03-21T06:35:08.986Z,2.90
2019-03-21T06:37:45.494Z,2.70
2019-03-21T06:40:15.449Z,2.70
2019-03-21T06:42:48.652Z,2.70
2019-03-21T06:45:18.241Z,2.70
2019-03-21T06:47:48.149Z,2.90
2019-03-21T06:50:20.594Z,3.00
2019-03-21T06:52:53.337Z,3.00
2019-03-21T06:55:23.107Z,3.10
2019-03-21T06:57:52.816Z,3.20
2019-03-21T07:00:24.918Z,3.30
2019-03-21T07:02:54.316Z,3.40
2019-03-21T07:05:23.861Z,3.50
2019-03-21T07:07:53.474Z,3.60
2019-03-21T07:10:23.983Z,3.60
2019-03-21T07:12:53.597Z,4.20
2019-03-21T07:15:23.914Z,4.10
2019-03-21T07:17:53.564Z,4.10
2019-03-21T07:20:23.250Z,4.00
2019-03-21T07:22:52.780Z,4.10
2019-03-21T07:25:22.445Z,4.10
2019-03-21T07:27:52.060Z,4.30
2019-03-21T07:30:21.631Z,4.30
2019-03-21T07:32:51.089Z,4.30
2019-03-21T07:35:20.663Z,4.40
2019-03-21T07:37:50.274Z,4.40
2019-03-21T07:40:19.891Z,4.50
2019-03-21T07:42:49.364Z,4.50
2019-03-21T07:45:18.937Z,4.60
2019-03-21T07:47:48.490Z,4.70
2019-03-21T07:50:17.962Z,4.80
2019-03-21T07:52:47.555Z,4.90
2019-03-21T07:55:17.094Z,5.00
2019-03-21T07:57:46.722Z,5.20
2019-03-21T08:00:16.758Z,5.20
2019-03-21T08:02:46.375Z,5.20
2019-03-21T08:05:17.128Z,5.30
2019-03-21T08:07:47.057Z,5.30
2019-03-21T08:10:16.776Z,5.40
2019-03-21T08:12:46.430Z,5.50
2019-03-21T08:15:16.250Z,5.50
2019-03-21T08:17:49.167Z,5.60
2019-03-21T08:20:19.105Z,5.70
2019-03-21T08:22:48.762Z,5.70
2019-03-21T08:25:18.594Z,5.80
2019-03-21T08:27:48.193Z,5.90
2019-03-21T08:30:34.459Z,5.90
2019-03-21T08:33:04.767Z,6.00
2019-03-21T08:35:34.353Z,6.00
2019-03-21T08:38:04.059Z,6.10
2019-03-21T08:40:33.722Z,6.00
2019-03-21T08:43:03.616Z,6.00
2019-03-21T08:45:33.311Z,6.10
2019-03-21T08:48:04.067Z,6.20
2019-03-21T08:50:33.786Z,6.20
2019-03-21T08:53:03.572Z,6.30
2019-03-21T08:55:33.526Z,6.30
2019-03-21T08:58:03.076Z,6.40
2019-03-21T09:00:34.397Z,6.60
2019-03-21T09:03:04.036Z,6.60
2019-03-21T09:05:33.639Z,6.60
2019-03-21T09:08:03.184Z,6.70
2019-03-21T09:10:34.417Z,6.90
2019-03-21T09:13:04.170Z,6.90
2019-03-21T09:15:33.680Z,6.80
2019-03-21T09:18:03.182Z,6.90
2019-03-21T09:20:32.693Z,6.90
2019-03-21T09:23:02.333Z,6.90
2019-03-21T09:25:31.911Z,6.90
2019-03-21T09:28:02.763Z,6.90
2019-03-21T09:30:32.818Z,7.10
2019-03-21T09:33:02.307Z,7.20
2019-03-21T09:35:32.001Z,7.20
2019-03-21T09:38:01.670Z,7.00
2019-03-21T09:40:31.286Z,7.20
2019-03-21T09:43:03.175Z,7.30
2019-03-21T09:45:33.226Z,7.40
2019-03-21T09:48:02.822Z,7.30
2019-03-21T09:50:32.421Z,7.30
2019-03-21T09:53:02.274Z,7.30
2019-03-21T09:55:31.901Z,7.60
2019-03-21T09:58:01.640Z,7.50
2019-03-21T10:00:35.556Z,7.60
2019-03-21T10:03:05.614Z,7.60
2019-03-21T10:05:35.271Z,7.50
2019-03-21T10:08:05.790Z,7.40
2019-03-21T10:10:35.478Z,7.50
2019-03-21T10:13:06.562Z,7.50
2019-03-21T10:15:36.203Z,7.50
2019-03-21T10:18:05.944Z,7.60
2019-03-21T10:20:35.547Z,7.70
2019-03-21T10:23:05.166Z,7.90
2019-03-21T10:25:34.888Z,8.10
2019-03-21T10:28:04.510Z,8.10
2019-03-21T10:30:38.833Z,8.10
2019-03-21T10:33:09.957Z,8.20
2019-03-21T10:35:39.631Z,8.30
2019-03-21T10:38:09.459Z,8.30
2019-03-21T10:40:39.176Z,8.40
2019-03-21T10:43:10.528Z,8.40
2019-03-21T10:45:40.417Z,8.50
2019-03-21T10:48:10.095Z,8.60
2019-03-21T10:50:41.036Z,8.70
2019-03-21T10:53:10.786Z,8.70
2019-03-21T10:55:40.531Z,8.70
2019-03-21T10:58:10.767Z,8.80
2019-03-21T11:00:42.434Z,8.90
2019-03-21T11:03:12.039Z,9.00
2019-03-21T11:05:41.681Z,9.10
2019-03-21T11:08:11.384Z,9.20
2019-03-21T11:10:42.207Z,9.30
2019-03-21T11:13:11.869Z,9.20
2019-03-21T11:15:41.458Z,9.40
2019-03-21T11:18:11.050Z,9.50
2019-03-21T11:20:41.380Z,9.50
2019-03-21T11:23:11.671Z,9.50
2019-03-21T11:25:41.364Z,9.70
2019-03-21T11:28:12.216Z,9.90
2019-03-21T11:30:44.268Z,9.90
2019-03-21T11:33:15.924Z,9.90
2019-03-21T11:35:47.613Z,9.90
2019-03-21T11:38:17.193Z,10.10
2019-03-21T11:40:48.415Z,10.20
2019-03-21T11:43:20.690Z,10.10
2019-03-21T11:45:58.086Z,10.10
2019-03-21T11:48:27.680Z,10.20
2019-03-21T11:50:57.161Z,10.30
2019-03-21T11:53:26.569Z,10.50
2019-03-21T11:55:55.966Z,10.60
2019-03-21T11:58:25.444Z,10.70
2019-03-21T12:00:55.004Z,10.80
2019-03-21T12:03:24.567Z,10.70
2019-03-21T12:05:54.408Z,10.50
2019-03-21T12:08:23.915Z,10.60
2019-03-21T12:10:53.350Z,10.50
2019-03-21T12:13:24.777Z,10.60
2019-03-21T12:15:54.534Z,10.80
2019-03-21T12:18:25.398Z,10.80
2019-03-21T12:20:55.096Z,10.80
2019-03-21T12:23:25.824Z,10.80
2019-03-21T12:25:55.585Z,10.90
2019-03-21T12:28:25.185Z,11.00
2019-03-21T12:30:55.364Z,10.90
2019-03-21T12:33:27.521Z,10.90
2019-03-21T12:35:57.374Z,10.90
2019-03-21T12:38:26.986Z,11.00
2019-03-21T12:40:56.610Z,11.10
2019-03-21T12:43:26.190Z,11.10
2019-03-21T12:45:55.773Z,11.20
2019-03-21T12:48:25.572Z,11.40
2019-03-21T12:50:55.366Z,11.40
2019-03-21T12:53:25.526Z,11.50
2019-03-21T12:55:56.117Z,11.60
2019-03-21T12:58:25.632Z,11.50
2019-03-21T13:00:55.197Z,11.60
2019-03-21T13:03:24.831Z,11.70
2019-03-21T13:06:01.277Z,11.80
2019-03-21T13:08:33.965Z,11.90
2019-03-21T13:11:07.241Z,11.90
2019-03-21T13:13:37.727Z,12.00
2019-03-21T13:16:12.261Z,12.00
2019-03-21T13:18:42.886Z,12.00
2019-03-21T13:21:12.403Z,12.10
2019-03-21T13:23:42.891Z,12.20
2019-03-21T13:26:12.628Z,12.10
2019-03-21T13:28:42.216Z,12.00
2019-03-21T13:31:11.810Z,12.00
2019-03-21T13:33:41.413Z,12.20
2019-03-21T13:36:11.130Z,12.10
2019-03-21T13:38:52.946Z,12.20
2019-03-21T13:41:24.687Z,12.20
2019-03-21T13:43:55.328Z,12.40
2019-03-21T13:46:25.902Z,12.40
2019-03-21T13:48:57.425Z,12.30
2019-03-21T13:51:26.858Z,12.30
2019-03-21T13:53:57.352Z,12.50
2019-03-21T13:56:37.772Z,12.50
2019-03-21T13:58:59.055Z,12.40
2019-03-21T14:01:28.550Z,12.50
2019-03-21T14:04:03.893Z,12.50
2019-03-21T14:06:35.638Z,12.50
2019-03-21T14:09:07.290Z,12.40
2019-03-21T14:14:29.890Z,12.50
2019-03-21T14:16:59.450Z,12.60
2019-03-21T14:19:28.917Z,12.70
2019-03-21T14:21:58.405Z,12.70
2019-03-21T14:24:27.861Z,12.60
2019-03-21T14:26:57.410Z,12.50
2019-03-21T14:29:26.872Z,12.50
2019-03-21T14:31:56.253Z,12.70
2019-03-21T14:34:25.798Z,12.80
2019-03-21T14:36:55.174Z,12.60
2019-03-21T14:39:24.644Z,12.50
2019-03-21T14:41:54.034Z,12.40
2019-03-21T14:44:23.517Z,12.50
2019-03-21T14:46:53.037Z,12.60
2019-03-21T14:49:22.539Z,12.60
2019-03-21T14:51:51.905Z,12.60
2019-03-21T14:54:21.309Z,12.50
2019-03-21T14:56:50.831Z,12.50
2019-03-21T14:59:20.420Z,12.40
2019-03-21T15:01:49.922Z,12.60
2019-03-21T15:04:19.415Z,12.60
2019-03-21T15:06:48.836Z,12.70
2019-03-21T15:09:18.335Z,12.80
2019-03-21T15:11:47.847Z,12.70
2019-03-21T15:14:17.422Z,12.80
2019-03-21T15:16:46.887Z,12.70
2019-03-21T15:19:16.354Z,12.70
2019-03-21T15:21:45.765Z,12.70
2019-03-21T15:24:15.219Z,12.50
2019-03-21T15:26:44.610Z,12.50
2019-03-21T15:29:14.078Z,12.50
2019-03-21T15:31:43.584Z,12.50
2019-03-21T15:34:13.078Z,12.60
2019-03-21T15:36:42.473Z,12.60
2019-03-21T15:39:15.158Z,12.60
2019-03-21T15:41:44.727Z,12.60
2019-03-21T15:44:14.198Z,12.60
2019-03-21T15:46:43.586Z,12.70
2019-03-21T15:49:13.056Z,12.50
2019-03-21T15:51:42.545Z,12.50
2019-03-21T15:54:12.581Z,12.40
2019-03-21T15:56:43.141Z,12.40
2019-03-21T15:59:12.753Z,12.30
2019-03-21T16:01:43.302Z,12.30
2019-03-21T16:04:14.761Z,12.30
2019-03-21T16:06:44.524Z,12.20
2019-03-21T16:09:14.181Z,12.20
2019-03-21T16:11:43.838Z,12.30
2019-03-21T16:14:13.449Z,12.20
2019-03-21T16:16:42.981Z,12.10
2019-03-21T16:19:12.430Z,12.10
2019-03-21T16:21:41.985Z,12.10
2019-03-21T16:24:17.232Z,12.10
2019-03-21T16:26:46.842Z,12.10
2019-03-21T16:29:25.347Z,12.00
2019-03-21T16:32:02.646Z,11.90
2019-03-21T16:34:33.101Z,12.00
2019-03-21T16:37:04.925Z,12.00
2019-03-21T16:39:40.453Z,12.00
2019-03-21T16:42:09.910Z,11.90
2019-03-21T16:44:39.400Z,11.80
2019-03-21T16:47:09.820Z,11.60
2019-03-21T16:49:48.123Z,11.60
2019-03-21T16:52:17.714Z,11.70
2019-03-21T16:54:48.269Z,11.70
2019-03-21T16:57:17.711Z,11.60
2019-03-21T16:59:47.169Z,11.50
2019-03-21T17:02:16.662Z,11.40
2019-03-21T17:04:48.354Z,11.40
2019-03-21T17:07:17.958Z,11.40
2019-03-21T17:09:47.529Z,11.30
2019-03-21T17:12:17.045Z,11.20
2019-03-21T17:14:47.639Z,11.20
2019-03-21T17:17:17.194Z,11.00
2019-03-21T17:19:46.611Z,10.90
2019-03-21T17:22:17.126Z,10.90
2019-03-21T17:24:46.646Z,10.80
2019-03-21T17:27:16.262Z,10.70
2019-03-21T17:29:45.850Z,10.70
2019-03-21T17:32:17.416Z,10.50
2019-03-21T17:34:46.672Z,10.40
2019-03-21T17:37:16.154Z,10.30
2019-03-21T17:39:45.714Z,10.20
2019-03-21T17:42:15.265Z,10.20
2019-03-21T17:44:50.671Z,10.10
2019-03-21T17:47:20.217Z,10.00
2019-03-21T17:49:49.734Z,10.00
2019-03-21T17:52:20.283Z,9.90
2019-03-21T17:54:50.746Z,9.90
2019-03-21T17:57:20.382Z,9.80
2019-03-21T17:59:50.941Z,9.70
2019-03-21T18:02:20.740Z,9.60
2019-03-21T18:04:50.453Z,9.60
2019-03-21T18:07:19.995Z,9.50
2019-03-21T18:09:49.838Z,9.40
2019-03-21T18:12:19.371Z,9.40
2019-03-21T18:14:48.848Z,9.20
2019-03-21T18:17:19.407Z,9.10
2019-03-21T18:19:48.951Z,9.10
2019-03-21T18:22:18.516Z,9.00
2019-03-21T18:24:53.675Z,8.90
2019-03-21T18:27:19.269Z,8.80
2019-03-21T18:29:48.728Z,8.80
2019-03-21T18:32:18.302Z,8.70
2019-03-21T18:34:47.857Z,8.70
2019-03-21T18:37:17.398Z,8.80
2019-03-21T18:39:46.881Z,8.70
2019-03-21T18:42:16.265Z,8.70
2019-03-21T18:44:45.937Z,8.80
2019-03-21T18:47:15.344Z,8.70
2019-03-21T18:49:44.833Z,8.60
2019-03-21T18:52:14.368Z,8.70
2019-03-21T18:54:43.844Z,8.70
2019-03-21T18:57:13.298Z,8.70
2019-03-21T18:59:42.756Z,8.70
2019-03-21T19:02:12.333Z,8.70
2019-03-21T19:04:41.902Z,8.80
2019-03-21T19:07:11.484Z,8.90
2019-03-21T19:09:43.828Z,8.80
2019-03-21T19:12:12.218Z,8.60
2019-03-21T19:14:42.747Z,8.50
2019-03-21T19:17:12.211Z,8.40
2019-03-21T19:19:41.740Z,8.30
2019-03-21T19:22:12.274Z,8.20
2019-03-21T19:24:41.774Z,8.10
2019-03-21T19:27:11.339Z,8.00
2019-03-21T19:29:40.893Z,7.80
2019-03-21T19:32:10.494Z,7.70
2019-03-21T19:34:39.890Z,7.60
2019-03-21T19:37:09.409Z,7.50
2019-03-21T19:39:38.982Z,7.40
2019-03-21T19:42:08.599Z,7.30
2019-03-21T19:44:38.138Z,7.20
2019-03-21T19:47:07.642Z,7.20
2019-03-21T19:49:38.173Z,7.10
2019-03-21T19:52:08.744Z,7.10
2019-03-21T19:54:40.147Z,7.00
2019-03-21T19:57:09.662Z,7.00
2019-03-21T19:59:40.704Z,6.90
2019-03-21T20:02:14.692Z,6.90
2019-03-21T20:04:44.122Z,6.80
2019-03-21T20:07:14.657Z,6.80
2019-03-21T20:09:44.321Z,6.80
2019-03-21T20:12:15.963Z,6.70
2019-03-21T20:14:45.576Z,6.60
2019-03-21T20:17:15.931Z,6.60
2019-03-21T20:19:45.467Z,6.50
2019-03-21T20:22:15.214Z,6.50
2019-03-21T20:24:44.787Z,6.40
2019-03-21T20:27:14.587Z,6.40
2019-03-21T20:29:44.237Z,6.40
2019-03-21T20:32:20.597Z,6.30
2019-03-21T20:34:45.267Z,6.30
2019-03-21T20:37:14.912Z,6.30
2019-03-21T20:39:44.463Z,6.20
2019-03-21T20:42:15.010Z,6.20
2019-03-21T20:44:44.491Z,6.10
2019-03-21T20:47:14.058Z,6.10
2019-03-21T20:49:43.570Z,6.10
2019-03-21T20:52:13.297Z,6.00
2019-03-21T20:54:42.876Z,6.00
2019-03-21T20:57:12.418Z,6.00
2019-03-21T20:59:43.173Z,5.90
2019-03-21T21:02:13.022Z,5.90
2019-03-21T21:04:46.244Z,5.90
2019-03-21T21:07:19.654Z,5.80
2019-03-21T21:09:50.398Z,5.80
2019-03-21T21:12:20.126Z,5.80
2019-03-21T21:14:49.601Z,5.70
2019-03-21T21:17:19.107Z,5.70
2019-03-21T21:19:55.888Z,5.70
2019-03-21T21:22:25.387Z,5.80
2019-03-21T21:24:56.704Z,5.70
2019-03-21T21:27:26.207Z,5.80
2019-03-21T21:29:55.810Z,5.80
2019-03-21T21:32:25.389Z,5.70
2019-03-21T21:34:54.976Z,5.70
2019-03-21T21:37:24.624Z,5.70
2019-03-21T21:40:02.226Z,5.60
2019-03-21T21:42:31.724Z,5.60
2019-03-21T21:45:02.225Z,5.50
2019-03-21T21:47:31.715Z,5.50
2019-03-21T21:50:01.280Z,5.50
2019-03-21T21:52:41.604Z,5.50
2019-03-21T21:55:02.897Z,5.50
2019-03-21T21:57:32.466Z,5.40
2019-03-21T22:00:01.978Z,5.40
2019-03-21T22:02:33.484Z,5.40
2019-03-21T22:05:03.021Z,5.40
2019-03-21T22:07:32.454Z,5.40
2019-03-21T22:10:02.107Z,5.40
2019-03-21T22:12:31.651Z,5.40
2019-03-21T22:15:02.181Z,5.40
2019-03-21T22:17:31.659Z,5.40
2019-03-21T22:20:01.406Z,5.40
2019-03-21T22:22:30.829Z,5.30
2019-03-21T22:25:00.483Z,5.30
2019-03-21T22:27:29.945Z,5.30
2019-03-21T22:29:59.518Z,5.30
2019-03-21T22:32:29.954Z,5.30
2019-03-21T22:34:59.539Z,5.20
2019-03-21T22:37:29.142Z,5.20
2019-03-21T22:39:58.659Z,5.20
2019-03-21T22:42:28.234Z,5.20
2019-03-21T22:44:57.769Z,5.20
2019-03-21T22:47:27.384Z,5.20
2019-03-21T22:49:56.967Z,5.20
2019-03-21T22:52:26.415Z,5.10
2019-03-21T22:54:56.085Z,5.10
2019-03-21T22:57:25.520Z,5.10
2019-03-21T22:59:55.101Z,5.10
2019-03-21T23:02:26.731Z,5.10
2019-03-21T23:04:57.351Z,5.10
2019-03-21T23:07:26.905Z,5.10
2019-03-21T23:10:02.542Z,5.10
2019-03-21T23:12:32.015Z,5.10
2019-03-21T23:15:01.545Z,5.10
2019-03-21T23:17:31.203Z,5.10
2019-03-21T23:20:02.634Z,5.10
2019-03-21T23:22:32.120Z,5.20
2019-03-21T23:25:07.970Z,5.10
2019-03-21T23:27:43.474Z,5.10
2019-03-21T23:30:13.717Z,5.10
2019-03-21T23:32:43.225Z,5.00
2019-03-21T23:35:12.914Z,5.00
2019-03-21T23:37:42.443Z,5.00
2019-03-21T23:40:12.308Z,5.00
2019-03-21T23:42:41.870Z,5.00
2019-03-21T23:45:13.068Z,5.00
2019-03-21T23:47:42.706Z,4.90
2019-03-21T23:50:12.470Z,4.90
2019-03-21T23:52:42.094Z,4.90
2019-03-21T23:55:11.760Z,4.90
2019-03-21T23:57:41.234Z,4.90
